sensor_id;sensor_type;location;lat;lon;timestamp;P1;durP1;ratioP1;P2;durP2;ratioP2
53401;SDS011;39295;45.534;20.034;2023-03-24T00:01:31;23.77;;;17.15;;
53401;SDS011;39295;45.534;20.034;2023-03-24T00:09:47;32.00;;;19.77;;
53401;SDS011;39295;45.534;20.034;2023-03-24T00:12:14;26.73;;;18.13;;
53401;SDS011;39295;45.534;20.034;2023-03-24T00:14:43;24.48;;;17.10;;
53401;SDS011;39295;45.534;20.034;2023-03-24T00:17:12;21.67;;;15.50;;
53401;SDS011;39295;45.534;20.034;2023-03-24T00:22:43;18.52;;;14.40;;
53401;SDS011;39295;45.534;20.034;2023-03-24T00:25:12;21.42;;;14.40;;
53401;SDS011;39295;45.534;20.034;2023-03-24T00:27:39;19.80;;;13.95;;
53401;SDS011;39295;45.534;20.034;2023-03-24T00:30:06;17.17;;;13.23;;
53401;SDS011;39295;45.534;20.034;2023-03-24T00:32:34;17.05;;;13.15;;
53401;SDS011;39295;45.534;20.034;2023-03-24T00:35:23;21.40;;;14.27;;
53401;SDS011;39295;45.534;20.034;2023-03-24T00:37:49;18.90;;;14.18;;
53401;SDS011;39295;45.534;20.034;2023-03-24T00:40:17;18.88;;;14.05;;
53401;SDS011;39295;45.534;20.034;2023-03-24T00:42:44;19.80;;;14.45;;
53401;SDS011;39295;45.534;20.034;2023-03-24T00:45:16;17.20;;;13.82;;
53401;SDS011;39295;45.534;20.034;2023-03-24T00:47:43;22.52;;;14.73;;
53401;SDS011;39295;45.534;20.034;2023-03-24T00:52:59;20.77;;;14.48;;
53401;SDS011;39295;45.534;20.034;2023-03-24T00:55:26;20.60;;;14.57;;
53401;SDS011;39295;45.534;20.034;2023-03-24T00:57:52;19.38;;;14.95;;
53401;SDS011;39295;45.534;20.034;2023-03-24T01:00:23;20.55;;;14.88;;
53401;SDS011;39295;45.534;20.034;2023-03-24T01:02:50;21.00;;;14.63;;
53401;SDS011;39295;45.534;20.034;2023-03-24T01:05:22;19.88;;;14.40;;
53401;SDS011;39295;45.534;20.034;2023-03-24T01:07:49;21.77;;;15.02;;
53401;SDS011;39295;45.534;20.034;2023-03-24T01:10:20;21.83;;;14.50;;
53401;SDS011;39295;45.534;20.034;2023-03-24T01:12:50;19.50;;;13.85;;
53401;SDS011;39295;45.534;20.034;2023-03-24T01:15:17;20.50;;;14.50;;
53401;SDS011;39295;45.534;20.034;2023-03-24T01:17:44;22.35;;;15.00;;
53401;SDS011;39295;45.534;20.034;2023-03-24T01:23:00;20.45;;;14.48;;
53401;SDS011;39295;45.534;20.034;2023-03-24T01:25:26;21.60;;;15.00;;
53401;SDS011;39295;45.534;20.034;2023-03-24T01:27:53;23.67;;;15.60;;
53401;SDS011;39295;45.534;20.034;2023-03-24T01:30:20;21.48;;;15.32;;
53401;SDS011;39295;45.534;20.034;2023-03-24T01:32:47;19.92;;;14.95;;
53401;SDS011;39295;45.534;20.034;2023-03-24T01:35:13;19.02;;;14.43;;
53401;SDS011;39295;45.534;20.034;2023-03-24T01:37:40;22.48;;;15.25;;
53401;SDS011;39295;45.534;20.034;2023-03-24T01:40:06;19.55;;;14.70;;
53401;SDS011;39295;45.534;20.034;2023-03-24T01:42:34;22.13;;;14.40;;
53401;SDS011;39295;45.534;20.034;2023-03-24T01:45:32;19.80;;;15.25;;
53401;SDS011;39295;45.534;20.034;2023-03-24T01:47:46;21.10;;;14.70;;
53401;SDS011;39295;45.534;20.034;2023-03-24T01:53:16;21.80;;;15.27;;
53401;SDS011;39295;45.534;20.034;2023-03-24T01:55:44;21.33;;;14.80;;
53401;SDS011;39295;45.534;20.034;2023-03-24T01:58:12;22.23;;;14.55;;
53401;SDS011;39295;45.534;20.034;2023-03-24T02:00:38;18.13;;;14.18;;
53401;SDS011;39295;45.534;20.034;2023-03-24T02:03:10;21.40;;;15.07;;
53401;SDS011;39295;45.534;20.034;2023-03-24T02:05:39;28.10;;;15.57;;
53401;SDS011;39295;45.534;20.034;2023-03-24T02:08:14;20.38;;;15.38;;
53401;SDS011;39295;45.534;20.034;2023-03-24T02:10:41;21.92;;;15.10;;
53401;SDS011;39295;45.534;20.034;2023-03-24T02:13:08;22.40;;;15.95;;
53401;SDS011;39295;45.534;20.034;2023-03-24T02:15:37;26.73;;;16.13;;
53401;SDS011;39295;45.534;20.034;2023-03-24T02:20:52;20.77;;;15.95;;
53401;SDS011;39295;45.534;20.034;2023-03-24T02:23:27;21.42;;;15.50;;
53401;SDS011;39295;45.534;20.034;2023-03-24T02:43:45;24.05;;;16.45;;
53401;SDS011;39295;45.534;20.034;2023-03-24T02:46:26;23.55;;;15.85;;
53401;SDS011;39295;45.534;20.034;2023-03-24T02:58:55;22.48;;;17.23;;
53401;SDS011;39295;45.534;20.034;2023-03-24T03:01:25;23.40;;;17.33;;
53401;SDS011;39295;45.534;20.034;2023-03-24T03:04:14;23.08;;;17.00;;
53401;SDS011;39295;45.534;20.034;2023-03-24T03:06:46;22.77;;;16.83;;
53401;SDS011;39295;45.534;20.034;2023-03-24T03:09:16;25.27;;;16.92;;
53401;SDS011;39295;45.534;20.034;2023-03-24T03:11:45;26.25;;;17.45;;
53401;SDS011;39295;45.534;20.034;2023-03-24T03:14:13;24.05;;;16.92;;
53401;SDS011;39295;45.534;20.034;2023-03-24T03:17:00;24.80;;;17.80;;
53401;SDS011;39295;45.534;20.034;2023-03-24T03:22:33;24.77;;;16.67;;
53401;SDS011;39295;45.534;20.034;2023-03-24T03:25:02;25.27;;;17.30;;
53401;SDS011;39295;45.534;20.034;2023-03-24T03:27:29;25.15;;;17.75;;
53401;SDS011;39295;45.534;20.034;2023-03-24T03:30:04;23.25;;;16.48;;
53401;SDS011;39295;45.534;20.034;2023-03-24T03:32:32;25.20;;;17.63;;
53401;SDS011;39295;45.534;20.034;2023-03-24T03:35:18;26.45;;;16.90;;
53401;SDS011;39295;45.534;20.034;2023-03-24T03:40:17;26.05;;;17.55;;
53401;SDS011;39295;45.534;20.034;2023-03-24T03:42:45;26.52;;;17.08;;
53401;SDS011;39295;45.534;20.034;2023-03-24T03:45:11;25.15;;;17.60;;
53401;SDS011;39295;45.534;20.034;2023-03-24T03:47:38;22.98;;;16.38;;
53401;SDS011;39295;45.534;20.034;2023-03-24T03:50:05;24.17;;;17.45;;
53401;SDS011;39295;45.534;20.034;2023-03-24T03:52:32;21.98;;;16.10;;
53401;SDS011;39295;45.534;20.034;2023-03-24T03:54:59;27.48;;;19.02;;
53401;SDS011;39295;45.534;20.034;2023-03-24T03:57:25;51.70;;;31.40;;
53401;SDS011;39295;45.534;20.034;2023-03-24T03:59:51;56.15;;;37.40;;
53401;SDS011;39295;45.534;20.034;2023-03-24T04:15:56;36.75;;;24.65;;
53401;SDS011;39295;45.534;20.034;2023-03-24T04:27:03;36.47;;;22.95;;
53401;SDS011;39295;45.534;20.034;2023-03-24T04:29:36;32.05;;;20.30;;
53401;SDS011;39295;45.534;20.034;2023-03-24T04:32:11;29.33;;;19.90;;
53401;SDS011;39295;45.534;20.034;2023-03-24T04:37:28;27.88;;;18.75;;
53401;SDS011;39295;45.534;20.034;2023-03-24T04:40:02;29.95;;;19.27;;
53401;SDS011;39295;45.534;20.034;2023-03-24T04:42:34;28.13;;;19.00;;
53401;SDS011;39295;45.534;20.034;2023-03-24T04:45:01;31.63;;;20.80;;
53401;SDS011;39295;45.534;20.034;2023-03-24T04:47:28;34.03;;;21.15;;
53401;SDS011;39295;45.534;20.034;2023-03-24T04:53:13;31.60;;;20.50;;
53401;SDS011;39295;45.534;20.034;2023-03-24T04:58:09;29.40;;;18.30;;
53401;SDS011;39295;45.534;20.034;2023-03-24T05:00:35;24.35;;;17.35;;
53401;SDS011;39295;45.534;20.034;2023-03-24T05:03:02;25.00;;;17.45;;
53401;SDS011;39295;45.534;20.034;2023-03-24T05:08:32;39.38;;;19.73;;
53401;SDS011;39295;45.534;20.034;2023-03-24T05:10:58;40.65;;;20.90;;
53401;SDS011;39295;45.534;20.034;2023-03-24T05:13:24;38.35;;;19.70;;
53401;SDS011;39295;45.534;20.034;2023-03-24T05:15:51;26.50;;;18.25;;
53401;SDS011;39295;45.534;20.034;2023-03-24T05:18:17;31.13;;;18.85;;
53401;SDS011;39295;45.534;20.034;2023-03-24T05:20:44;28.05;;;18.25;;
53401;SDS011;39295;45.534;20.034;2023-03-24T05:23:10;25.65;;;18.45;;
53401;SDS011;39295;45.534;20.034;2023-03-24T05:25:36;25.73;;;17.40;;
53401;SDS011;39295;45.534;20.034;2023-03-24T05:28:02;20.70;;;15.30;;
53401;SDS011;39295;45.534;20.034;2023-03-24T05:30:28;26.63;;;16.75;;
53401;SDS011;39295;45.534;20.034;2023-03-24T05:32:55;23.73;;;16.63;;
53401;SDS011;39295;45.534;20.034;2023-03-24T05:44:13;25.00;;;17.38;;
53401;SDS011;39295;45.534;20.034;2023-03-24T05:46:39;25.30;;;17.40;;
53401;SDS011;39295;45.534;20.034;2023-03-24T05:52:10;25.15;;;17.83;;
53401;SDS011;39295;45.534;20.034;2023-03-24T05:54:36;28.30;;;18.80;;
53401;SDS011;39295;45.534;20.034;2023-03-24T05:57:04;31.25;;;18.35;;
53401;SDS011;39295;45.534;20.034;2023-03-24T05:59:33;27.13;;;18.33;;
53401;SDS011;39295;45.534;20.034;2023-03-24T06:01:59;26.15;;;18.27;;
53401;SDS011;39295;45.534;20.034;2023-03-24T06:04:28;30.50;;;17.92;;
53401;SDS011;39295;45.534;20.034;2023-03-24T06:06:55;28.33;;;17.45;;
53401;SDS011;39295;45.534;20.034;2023-03-24T06:09:26;24.35;;;17.63;;
53401;SDS011;39295;45.534;20.034;2023-03-24T06:12:03;26.80;;;17.63;;
53401;SDS011;39295;45.534;20.034;2023-03-24T06:14:29;24.75;;;17.38;;
53401;SDS011;39295;45.534;20.034;2023-03-24T06:16:55;25.08;;;17.48;;
53401;SDS011;39295;45.534;20.034;2023-03-24T06:19:28;23.92;;;16.70;;
53401;SDS011;39295;45.534;20.034;2023-03-24T06:21:57;25.45;;;16.85;;
53401;SDS011;39295;45.534;20.034;2023-03-24T06:24:27;23.73;;;17.10;;
53401;SDS011;39295;45.534;20.034;2023-03-24T06:26:53;21.25;;;16.10;;
53401;SDS011;39295;45.534;20.034;2023-03-24T06:29:27;22.45;;;16.63;;
53401;SDS011;39295;45.534;20.034;2023-03-24T06:31:53;22.45;;;17.15;;
53401;SDS011;39295;45.534;20.034;2023-03-24T06:34:34;23.00;;;16.95;;
53401;SDS011;39295;45.534;20.034;2023-03-24T06:37:03;21.00;;;15.60;;
53401;SDS011;39295;45.534;20.034;2023-03-24T06:39:29;23.40;;;15.68;;
53401;SDS011;39295;45.534;20.034;2023-03-24T06:41:55;23.30;;;16.35;;
53401;SDS011;39295;45.534;20.034;2023-03-24T06:44:21;25.10;;;17.63;;
53401;SDS011;39295;45.534;20.034;2023-03-24T06:46:47;21.17;;;16.63;;
53401;SDS011;39295;45.534;20.034;2023-03-24T06:49:13;22.00;;;16.88;;
53401;SDS011;39295;45.534;20.034;2023-03-24T06:54:24;20.23;;;16.25;;
53401;SDS011;39295;45.534;20.034;2023-03-24T06:56:51;31.40;;;19.50;;
53401;SDS011;39295;45.534;20.034;2023-03-24T06:59:17;25.67;;;18.17;;
53401;SDS011;39295;45.534;20.034;2023-03-24T07:01:47;27.48;;;17.02;;
53401;SDS011;39295;45.534;20.034;2023-03-24T07:04:14;20.90;;;16.27;;
53401;SDS011;39295;45.534;20.034;2023-03-24T07:06:40;24.40;;;16.55;;
53401;SDS011;39295;45.534;20.034;2023-03-24T07:09:06;27.73;;;16.90;;
53401;SDS011;39295;45.534;20.034;2023-03-24T07:11:33;28.17;;;18.67;;
53401;SDS011;39295;45.534;20.034;2023-03-24T07:13:59;25.60;;;16.13;;
53401;SDS011;39295;45.534;20.034;2023-03-24T07:16:25;24.00;;;16.45;;
53401;SDS011;39295;45.534;20.034;2023-03-24T07:18:51;24.52;;;16.13;;
53401;SDS011;39295;45.534;20.034;2023-03-24T07:21:35;25.25;;;16.92;;
53401;SDS011;39295;45.534;20.034;2023-03-24T07:24:02;28.80;;;16.48;;
53401;SDS011;39295;45.534;20.034;2023-03-24T07:26:28;28.35;;;16.90;;
53401;SDS011;39295;45.534;20.034;2023-03-24T07:28:54;26.77;;;16.83;;
53401;SDS011;39295;45.534;20.034;2023-03-24T07:31:20;21.83;;;16.25;;
53401;SDS011;39295;45.534;20.034;2023-03-24T07:33:48;21.02;;;16.45;;
53401;SDS011;39295;45.534;20.034;2023-03-24T07:39:18;23.65;;;17.13;;
53401;SDS011;39295;45.534;20.034;2023-03-24T07:41:45;25.73;;;17.88;;
53401;SDS011;39295;45.534;20.034;2023-03-24T07:44:11;24.83;;;16.88;;
53401;SDS011;39295;45.534;20.034;2023-03-24T07:46:37;23.65;;;18.25;;
53401;SDS011;39295;45.534;20.034;2023-03-24T07:49:03;25.33;;;18.38;;
53401;SDS011;39295;45.534;20.034;2023-03-24T07:51:30;25.13;;;18.50;;
53401;SDS011;39295;45.534;20.034;2023-03-24T07:53:56;26.83;;;18.00;;
53401;SDS011;39295;45.534;20.034;2023-03-24T07:56:22;28.77;;;19.38;;
53401;SDS011;39295;45.534;20.034;2023-03-24T07:58:49;26.90;;;17.52;;
53401;SDS011;39295;45.534;20.034;2023-03-24T08:01:15;26.52;;;18.13;;
53401;SDS011;39295;45.534;20.034;2023-03-24T08:03:42;25.70;;;17.88;;
53401;SDS011;39295;45.534;20.034;2023-03-24T08:06:08;28.05;;;19.00;;
53401;SDS011;39295;45.534;20.034;2023-03-24T08:08:34;24.67;;;17.67;;
53401;SDS011;39295;45.534;20.034;2023-03-24T08:11:01;23.05;;;18.65;;
53401;SDS011;39295;45.534;20.034;2023-03-24T08:13:28;25.63;;;17.13;;
53401;SDS011;39295;45.534;20.034;2023-03-24T08:15:55;22.73;;;16.80;;
53401;SDS011;39295;45.534;20.034;2023-03-24T08:18:21;25.85;;;18.15;;
53401;SDS011;39295;45.534;20.034;2023-03-24T08:21:04;31.05;;;18.02;;
53401;SDS011;39295;45.534;20.034;2023-03-24T08:23:30;27.52;;;18.52;;
53401;SDS011;39295;45.534;20.034;2023-03-24T08:25:57;22.38;;;16.90;;
53401;SDS011;39295;45.534;20.034;2023-03-24T08:28:23;24.45;;;17.65;;
53401;SDS011;39295;45.534;20.034;2023-03-24T08:30:50;26.50;;;16.98;;
53401;SDS011;39295;45.534;20.034;2023-03-24T08:33:16;29.17;;;16.75;;
53401;SDS011;39295;45.534;20.034;2023-03-24T08:35:42;25.20;;;17.10;;
53401;SDS011;39295;45.534;20.034;2023-03-24T08:38:10;26.33;;;15.93;;
53401;SDS011;39295;45.534;20.034;2023-03-24T08:40:37;23.73;;;17.15;;
53401;SDS011;39295;45.534;20.034;2023-03-24T08:43:05;24.48;;;16.15;;
53401;SDS011;39295;45.534;20.034;2023-03-24T08:45:35;30.15;;;17.17;;
53401;SDS011;39295;45.534;20.034;2023-03-24T08:48:02;23.50;;;16.23;;
53401;SDS011;39295;45.534;20.034;2023-03-24T08:50:30;28.05;;;14.55;;
53401;SDS011;39295;45.534;20.034;2023-03-24T08:52:58;23.05;;;13.98;;
53401;SDS011;39295;45.534;20.034;2023-03-24T08:55:24;16.98;;;12.95;;
53401;SDS011;39295;45.534;20.034;2023-03-24T08:57:52;19.08;;;12.85;;
53401;SDS011;39295;45.534;20.034;2023-03-24T09:00:18;22.05;;;12.75;;
53401;SDS011;39295;45.534;20.034;2023-03-24T09:02:46;15.25;;;12.10;;
53401;SDS011;39295;45.534;20.034;2023-03-24T09:05:12;17.50;;;12.52;;
53401;SDS011;39295;45.534;20.034;2023-03-24T09:07:39;16.33;;;12.90;;
53401;SDS011;39295;45.534;20.034;2023-03-24T09:10:06;15.35;;;11.88;;
53401;SDS011;39295;45.534;20.034;2023-03-24T09:12:32;22.63;;;11.80;;
53401;SDS011;39295;45.534;20.034;2023-03-24T09:14:59;15.52;;;12.02;;
53401;SDS011;39295;45.534;20.034;2023-03-24T09:17:25;16.48;;;11.18;;
53401;SDS011;39295;45.534;20.034;2023-03-24T09:22:46;15.43;;;10.70;;
53401;SDS011;39295;45.534;20.034;2023-03-24T09:25:16;15.02;;;10.63;;
53401;SDS011;39295;45.534;20.034;2023-03-24T09:27:45;19.67;;;11.82;;
53401;SDS011;39295;45.534;20.034;2023-03-24T09:30:15;13.50;;;9.90;;
53401;SDS011;39295;45.534;20.034;2023-03-24T09:32:43;15.77;;;9.98;;
53401;SDS011;39295;45.534;20.034;2023-03-24T09:35:09;13.48;;;10.18;;
53401;SDS011;39295;45.534;20.034;2023-03-24T09:37:36;12.18;;;9.77;;
53401;SDS011;39295;45.534;20.034;2023-03-24T09:40:03;18.30;;;9.73;;
53401;SDS011;39295;45.534;20.034;2023-03-24T09:42:33;13.32;;;9.20;;
53401;SDS011;39295;45.534;20.034;2023-03-24T09:45:04;12.20;;;8.23;;
53401;SDS011;39295;45.534;20.034;2023-03-24T09:47:40;10.95;;;8.38;;
53401;SDS011;39295;45.534;20.034;2023-03-24T09:50:10;15.88;;;9.13;;
53401;SDS011;39295;45.534;20.034;2023-03-24T09:52:41;11.05;;;8.05;;
53401;SDS011;39295;45.534;20.034;2023-03-24T09:55:12;13.63;;;8.05;;
53401;SDS011;39295;45.534;20.034;2023-03-24T09:57:42;9.27;;;7.22;;
53401;SDS011;39295;45.534;20.034;2023-03-24T10:00:23;14.05;;;7.65;;
53401;SDS011;39295;45.534;20.034;2023-03-24T10:02:51;12.48;;;6.78;;
53401;SDS011;39295;45.534;20.034;2023-03-24T10:05:21;11.63;;;7.72;;
53401;SDS011;39295;45.534;20.034;2023-03-24T10:07:55;11.32;;;6.57;;
53401;SDS011;39295;45.534;20.034;2023-03-24T10:12:51;19.27;;;7.35;;
53401;SDS011;39295;45.534;20.034;2023-03-24T10:28:27;11.40;;;7.00;;
53401;SDS011;39295;45.534;20.034;2023-03-24T10:30:56;7.00;;;4.63;;
53401;SDS011;39295;45.534;20.034;2023-03-24T10:33:25;8.68;;;5.07;;
53401;SDS011;39295;45.534;20.034;2023-03-24T10:36:02;8.93;;;4.97;;
53401;SDS011;39295;45.534;20.034;2023-03-24T10:38:32;6.25;;;4.72;;
53401;SDS011;39295;45.534;20.034;2023-03-24T10:40:58;8.07;;;4.80;;
53401;SDS011;39295;45.534;20.034;2023-03-24T10:43:25;9.18;;;4.40;;
53401;SDS011;39295;45.534;20.034;2023-03-24T10:45:52;10.32;;;5.28;;
53401;SDS011;39295;45.534;20.034;2023-03-24T10:48:39;13.60;;;5.25;;
53401;SDS011;39295;45.534;20.034;2023-03-24T10:51:06;8.98;;;5.45;;
53401;SDS011;39295;45.534;20.034;2023-03-24T10:53:35;7.57;;;4.88;;
53401;SDS011;39295;45.534;20.034;2023-03-24T10:56:01;7.97;;;4.60;;
53401;SDS011;39295;45.534;20.034;2023-03-24T10:58:37;6.80;;;4.70;;
53401;SDS011;39295;45.534;20.034;2023-03-24T11:04:03;6.43;;;4.65;;
53401;SDS011;39295;45.534;20.034;2023-03-24T11:06:31;8.60;;;4.40;;
53401;SDS011;39295;45.534;20.034;2023-03-24T11:12:01;5.93;;;4.18;;
53401;SDS011;39295;45.534;20.034;2023-03-24T11:14:29;7.75;;;4.57;;
53401;SDS011;39295;45.534;20.034;2023-03-24T11:17:15;7.97;;;4.97;;
53401;SDS011;39295;45.534;20.034;2023-03-24T11:19:51;8.60;;;4.40;;
53401;SDS011;39295;45.534;20.034;2023-03-24T11:25:35;5.22;;;4.13;;
53401;SDS011;39295;45.534;20.034;2023-03-24T11:28:04;6.68;;;4.05;;
53401;SDS011;39295;45.534;20.034;2023-03-24T11:30:33;7.83;;;4.70;;
53401;SDS011;39295;45.534;20.034;2023-03-24T11:33:01;7.95;;;4.80;;
53401;SDS011;39295;45.534;20.034;2023-03-24T11:35:28;12.00;;;5.88;;
53401;SDS011;39295;45.534;20.034;2023-03-24T11:37:55;9.95;;;4.90;;
53401;SDS011;39295;45.534;20.034;2023-03-24T11:40:23;12.02;;;5.57;;
53401;SDS011;39295;45.534;20.034;2023-03-24T11:42:59;8.70;;;4.55;;
53401;SDS011;39295;45.534;20.034;2023-03-24T11:45:39;7.75;;;4.57;;
53401;SDS011;39295;45.534;20.034;2023-03-24T11:50:44;10.88;;;4.85;;
53401;SDS011;39295;45.534;20.034;2023-03-24T11:53:13;6.90;;;4.50;;
53401;SDS011;39295;45.534;20.034;2023-03-24T11:55:43;8.02;;;5.50;;
53401;SDS011;39295;45.534;20.034;2023-03-24T11:58:27;7.73;;;5.00;;
53401;SDS011;39295;45.534;20.034;2023-03-24T12:11:05;10.15;;;5.13;;
53401;SDS011;39295;45.534;20.034;2023-03-24T12:13:39;7.75;;;4.35;;
53401;SDS011;39295;45.534;20.034;2023-03-24T12:26:55;13.18;;;4.40;;
53401;SDS011;39295;45.534;20.034;2023-03-24T12:29:28;7.22;;;4.40;;
53401;SDS011;39295;45.534;20.034;2023-03-24T12:35:13;15.43;;;5.07;;
53401;SDS011;39295;45.534;20.034;2023-03-24T12:43:07;7.10;;;4.38;;
53401;SDS011;39295;45.534;20.034;2023-03-24T12:45:54;6.75;;;4.30;;
53401;SDS011;39295;45.534;20.034;2023-03-24T12:51:03;9.40;;;4.35;;
53401;SDS011;39295;45.534;20.034;2023-03-24T12:53:37;11.27;;;5.03;;
53401;SDS011;39295;45.534;20.034;2023-03-24T13:01:34;9.55;;;5.00;;
53401;SDS011;39295;45.534;20.034;2023-03-24T13:04:14;8.43;;;5.35;;
53401;SDS011;39295;45.534;20.034;2023-03-24T13:14:36;10.70;;;5.22;;
53401;SDS011;39295;45.534;20.034;2023-03-24T13:17:11;13.35;;;9.07;;
53401;SDS011;39295;45.534;20.034;2023-03-24T13:19:39;8.27;;;5.25;;
53401;SDS011;39295;45.534;20.034;2023-03-24T13:22:08;13.10;;;6.72;;
53401;SDS011;39295;45.534;20.034;2023-03-24T13:24:37;15.13;;;6.45;;
53401;SDS011;39295;45.534;20.034;2023-03-24T13:30:05;9.35;;;4.07;;
53401;SDS011;39295;45.534;20.034;2023-03-24T13:32:37;13.30;;;5.75;;
53401;SDS011;39295;45.534;20.034;2023-03-24T13:37:33;10.23;;;5.43;;
53401;SDS011;39295;45.534;20.034;2023-03-24T13:40:04;19.85;;;8.18;;
53401;SDS011;39295;45.534;20.034;2023-03-24T13:42:32;10.45;;;5.53;;
53401;SDS011;39295;45.534;20.034;2023-03-24T13:45:00;7.25;;;4.18;;
53401;SDS011;39295;45.534;20.034;2023-03-24T13:47:49;10.80;;;6.10;;
53401;SDS011;39295;45.534;20.034;2023-03-24T13:50:21;6.75;;;3.92;;
53401;SDS011;39295;45.534;20.034;2023-03-24T13:52:49;18.85;;;6.75;;
53401;SDS011;39295;45.534;20.034;2023-03-24T13:55:22;10.30;;;4.90;;
53401;SDS011;39295;45.534;20.034;2023-03-24T13:57:55;8.07;;;4.13;;
53401;SDS011;39295;45.534;20.034;2023-03-24T14:00:23;7.78;;;3.33;;
53401;SDS011;39295;45.534;20.034;2023-03-24T14:07:49;12.10;;;3.67;;
53401;SDS011;39295;45.534;20.034;2023-03-24T14:15:25;7.25;;;4.07;;
53401;SDS011;39295;45.534;20.034;2023-03-24T14:17:55;11.18;;;5.82;;
53401;SDS011;39295;45.534;20.034;2023-03-24T14:20:31;7.28;;;4.40;;
53401;SDS011;39295;45.534;20.034;2023-03-24T14:22:59;8.88;;;4.07;;
53401;SDS011;39295;45.534;20.034;2023-03-24T14:25:27;6.55;;;3.58;;
53401;SDS011;39295;45.534;20.034;2023-03-24T14:28:17;5.75;;;3.63;;
53401;SDS011;39295;45.534;20.034;2023-03-24T14:30:53;7.03;;;3.47;;
53401;SDS011;39295;45.534;20.034;2023-03-24T14:33:23;7.18;;;5.35;;
53401;SDS011;39295;45.534;20.034;2023-03-24T14:35:50;10.95;;;4.60;;
53401;SDS011;39295;45.534;20.034;2023-03-24T14:38:22;5.88;;;3.08;;
53401;SDS011;39295;45.534;20.034;2023-03-24T14:40:51;7.10;;;3.20;;
53401;SDS011;39295;45.534;20.034;2023-03-24T14:43:21;7.30;;;3.30;;
53401;SDS011;39295;45.534;20.034;2023-03-24T14:45:58;6.57;;;3.05;;
53401;SDS011;39295;45.534;20.034;2023-03-24T14:50:54;15.10;;;4.63;;
53401;SDS011;39295;45.534;20.034;2023-03-24T14:53:23;6.60;;;3.80;;
53401;SDS011;39295;45.534;20.034;2023-03-24T14:55:49;8.73;;;4.68;;
53401;SDS011;39295;45.534;20.034;2023-03-24T15:00:48;8.93;;;2.92;;
53401;SDS011;39295;45.534;20.034;2023-03-24T15:06:26;12.75;;;3.60;;
53401;SDS011;39295;45.534;20.034;2023-03-24T15:08:55;9.07;;;3.58;;
53401;SDS011;39295;45.534;20.034;2023-03-24T15:11:29;11.25;;;3.67;;
53401;SDS011;39295;45.534;20.034;2023-03-24T15:13:57;6.60;;;3.72;;
53401;SDS011;39295;45.534;20.034;2023-03-24T15:16:25;8.73;;;4.20;;
53401;SDS011;39295;45.534;20.034;2023-03-24T15:21:39;13.40;;;5.10;;
53401;SDS011;39295;45.534;20.034;2023-03-24T15:26:47;15.60;;;5.88;;
53401;SDS011;39295;45.534;20.034;2023-03-24T15:29:14;9.88;;;4.90;;
53401;SDS011;39295;45.534;20.034;2023-03-24T15:31:43;9.13;;;4.32;;
53401;SDS011;39295;45.534;20.034;2023-03-24T15:37:00;17.40;;;6.82;;
53401;SDS011;39295;45.534;20.034;2023-03-24T15:39:28;11.68;;;4.93;;
53401;SDS011;39295;45.534;20.034;2023-03-24T15:41:57;12.77;;;6.70;;
53401;SDS011;39295;45.534;20.034;2023-03-24T15:44:35;10.75;;;4.60;;
53401;SDS011;39295;45.534;20.034;2023-03-24T15:47:03;6.55;;;4.13;;
53401;SDS011;39295;45.534;20.034;2023-03-24T15:49:31;5.57;;;4.00;;
53401;SDS011;39295;45.534;20.034;2023-03-24T15:54:43;9.77;;;5.47;;
53401;SDS011;39295;45.534;20.034;2023-03-24T15:57:22;11.35;;;7.32;;
53401;SDS011;39295;45.534;20.034;2023-03-24T16:02:34;22.58;;;11.93;;
53401;SDS011;39295;45.534;20.034;2023-03-24T16:05:03;28.48;;;13.40;;
53401;SDS011;39295;45.534;20.034;2023-03-24T16:07:32;24.25;;;11.73;;
53401;SDS011;39295;45.534;20.034;2023-03-24T16:10:03;18.08;;;8.65;;
53401;SDS011;39295;45.534;20.034;2023-03-24T16:12:36;11.83;;;5.47;;
53401;SDS011;39295;45.534;20.034;2023-03-24T16:15:03;15.25;;;7.57;;
53401;SDS011;39295;45.534;20.034;2023-03-24T16:17:31;18.85;;;9.07;;
53401;SDS011;39295;45.534;20.034;2023-03-24T16:19:57;19.98;;;10.23;;
53401;SDS011;39295;45.534;20.034;2023-03-24T16:22:23;15.85;;;7.60;;
53401;SDS011;39295;45.534;20.034;2023-03-24T16:24:49;9.20;;;4.75;;
53401;SDS011;39295;45.534;20.034;2023-03-24T16:27:15;15.80;;;4.88;;
53401;SDS011;39295;45.534;20.034;2023-03-24T16:29:42;11.00;;;4.35;;
53401;SDS011;39295;45.534;20.034;2023-03-24T16:32:08;13.63;;;4.60;;
53401;SDS011;39295;45.534;20.034;2023-03-24T16:34:34;12.98;;;4.97;;
53401;SDS011;39295;45.534;20.034;2023-03-24T16:37:01;22.52;;;9.30;;
53401;SDS011;39295;45.534;20.034;2023-03-24T16:39:28;37.25;;;18.20;;
53401;SDS011;39295;45.534;20.034;2023-03-24T16:41:57;35.92;;;19.83;;
53401;SDS011;39295;45.534;20.034;2023-03-24T16:44:23;36.58;;;17.30;;
53401;SDS011;39295;45.534;20.034;2023-03-24T16:46:50;24.33;;;12.95;;
53401;SDS011;39295;45.534;20.034;2023-03-24T16:49:17;24.65;;;11.95;;
53401;SDS011;39295;45.534;20.034;2023-03-24T16:51:44;29.00;;;11.20;;
53401;SDS011;39295;45.534;20.034;2023-03-24T16:54:10;24.25;;;11.50;;
53401;SDS011;39295;45.534;20.034;2023-03-24T16:56:37;44.25;;;14.15;;
53401;SDS011;39295;45.534;20.034;2023-03-24T16:59:03;26.42;;;16.05;;
53401;SDS011;39295;45.534;20.034;2023-03-24T17:01:31;120.35;;;95.47;;
53401;SDS011;39295;45.534;20.034;2023-03-24T17:04:00;128.73;;;107.80;;
53401;SDS011;39295;45.534;20.034;2023-03-24T17:06:27;93.50;;;72.57;;
53401;SDS011;39295;45.534;20.034;2023-03-24T17:08:54;52.85;;;32.75;;
53401;SDS011;39295;45.534;20.034;2023-03-24T17:11:36;33.95;;;14.15;;
53401;SDS011;39295;45.534;20.034;2023-03-24T17:14:03;31.80;;;14.52;;
53401;SDS011;39295;45.534;20.034;2023-03-24T17:16:33;30.98;;;12.93;;
53401;SDS011;39295;45.534;20.034;2023-03-24T17:19:01;28.45;;;13.45;;
53401;SDS011;39295;45.534;20.034;2023-03-24T17:21:27;47.80;;;16.88;;
53401;SDS011;39295;45.534;20.034;2023-03-24T17:23:53;42.60;;;19.67;;
53401;SDS011;39295;45.534;20.034;2023-03-24T17:26:20;55.17;;;25.88;;
53401;SDS011;39295;45.534;20.034;2023-03-24T17:28:46;86.03;;;34.50;;
53401;SDS011;39295;45.534;20.034;2023-03-24T17:31:13;82.63;;;41.30;;
53401;SDS011;39295;45.534;20.034;2023-03-24T17:33:39;75.45;;;42.13;;
53401;SDS011;39295;45.534;20.034;2023-03-24T17:36:05;102.80;;;41.20;;
53401;SDS011;39295;45.534;20.034;2023-03-24T17:38:31;82.68;;;39.58;;
53401;SDS011;39295;45.534;20.034;2023-03-24T17:40:58;78.65;;;38.85;;
53401;SDS011;39295;45.534;20.034;2023-03-24T17:43:25;93.10;;;45.03;;
53401;SDS011;39295;45.534;20.034;2023-03-24T17:45:54;165.93;;;77.43;;
53401;SDS011;39295;45.534;20.034;2023-03-24T17:48:20;273.50;;;121.25;;
53401;SDS011;39295;45.534;20.034;2023-03-24T17:50:46;314.75;;;138.13;;
53401;SDS011;39295;45.534;20.034;2023-03-24T17:53:12;291.40;;;128.02;;
53401;SDS011;39295;45.534;20.034;2023-03-24T17:55:40;235.18;;;106.20;;
53401;SDS011;39295;45.534;20.034;2023-03-24T17:58:06;208.27;;;95.40;;
53401;SDS011;39295;45.534;20.034;2023-03-24T18:00:32;174.48;;;80.47;;
53401;SDS011;39295;45.534;20.034;2023-03-24T18:02:58;149.65;;;64.68;;
53401;SDS011;39295;45.534;20.034;2023-03-24T18:05:24;133.63;;;56.33;;